Weather at Roblin Airport

Public forecast

Using degrees Celsius for public forecast. Weather courtesy of forecast.io.

Closest aviation weather report (METAR) to Roblin Airport

Closest report is Yorkton Municipal Airport, 40.2 nm (74.5 km) W. Retrieved 2020/09/29 13:00 UTC (2 minutes ago):

CYQV 291300Z AUTO 27008KT 9SM OVC180 07/06 A2978 RMK SLP098

Closest aviation forecast (TAF) to Roblin Airport

Closest forecast is Yorkton Municipal Airport, 40.2 nm (74.5 km) W. Retrieved 2020/09/29 12:42 UTC (20 minutes ago):

TAF CYQV 291138Z 2912/2924 27010KT P6SM SCT080 BKN220 BECMG 2912/2914 30012G22KT FM292100 30015G25KT P6SM SKC RMK FCST BASED ON AUTO OBS NXT FCST BY 291800Z